Terminal Aerodrome Forecast
Issued by NWS

Home | Current Version | Previous Version | Graphics & Text | Print | Product List | Glossary On
Versions: 1 2 3 4 5 6 7 8 9 10 11 12 13 14 15 16
760
FTUS43 KMPX 241745
TAFRNH
TAF
KRNH 241745Z 2418/2518 13012KT P6SM OVC009
      TEMPO 2418/2420 OVC012
     FM242000 14010KT P6SM OVC012
     FM250500 13008KT 6SM -SHRA VCTS OVC008CB
     FM250900 17008KT 6SM -SHRA BR OVC009
     FM251300 22010KT P6SM SCT100=

USA.gov is the U.S. government's official web portal to all federal, state and local government web resources and services.